Time;durP1;ratioP1;P1;durP2;ratioP2;P2;SDS_P1;SDS_P2;PMS_P1;PMS_P2;Temp;Humidity;BMP_temperature;BMP_pressure;BME280_temperature;BME280_humidity;BME280_pressure;Samples;Min_cycle;Max_cycle;Signal;HPM_P1;HPM_P2
2023/03/05 00:01:58;;;;;;;34.00;18.60;;;;;;;;;;4893284;29;20464;-73
2023/03/05 00:04:26;;;;;;;39.77;20.67;;;;;;;;;;4893158;29;20465;-73
2023/03/05 00:06:54;;;;;;;36.33;19.20;;;;;;;;;;4893374;29;20564;-74
2023/03/05 00:09:21;;;;;;;38.80;17.03;;;;;;;;;;4894468;29;20471;-75
2023/03/05 00:11:48;;;;;;;28.60;17.43;;;;;;;;;;4882221;29;20501;-74
2023/03/05 00:14:17;;;;;;;40.60;18.00;;;;;;;;;;4875533;29;20845;-74
2023/03/05 00:16:44;;;;;;;40.17;18.50;;;;;;;;;;4874353;29;20509;-75
2023/03/05 00:19:11;;;;;;;42.57;19.90;;;;;;;;;;4874276;29;20458;-75
2023/03/05 00:21:39;;;;;;;32.57;15.70;;;;;;;;;;4874344;29;20941;-72
2023/03/05 00:24:08;;;;;;;38.33;17.70;;;;;;;;;;4874088;29;21241;-73
2023/03/05 00:26:35;;;;;;;39.73;19.60;;;;;;;;;;4879397;29;20476;-72
2023/03/05 00:29:03;;;;;;;35.87;18.90;;;;;;;;;;4893153;29;21350;-73
2023/03/05 00:31:32;;;;;;;35.13;18.53;;;;;;;;;;4892712;29;20456;-73
2023/03/05 00:34:00;;;;;;;35.77;21.70;;;;;;;;;;4892206;29;20464;-72
2023/03/05 00:36:27;;;;;;;38.57;19.23;;;;;;;;;;4892216;29;20514;-73
2023/03/05 00:38:55;;;;;;;44.90;19.73;;;;;;;;;;4891919;29;20453;-72
2023/03/05 00:41:22;;;;;;;33.07;18.50;;;;;;;;;;4897277;29;20462;-72
2023/03/05 00:43:49;;;;;;;33.37;18.07;;;;;;;;;;4881958;29;20486;-73
2023/03/05 00:46:17;;;;;;;36.30;19.03;;;;;;;;;;4876423;29;20446;-73
2023/03/05 00:48:45;;;;;;;33.93;17.80;;;;;;;;;;4876333;29;20465;-75
2023/03/05 00:51:12;;;;;;;34.67;17.63;;;;;;;;;;4875121;29;20468;-73
2023/03/05 00:53:39;;;;;;;33.83;19.47;;;;;;;;;;4875938;29;20461;-73
2023/03/05 00:56:07;;;;;;;36.13;17.67;;;;;;;;;;4874279;29;20501;-73
2023/03/05 00:58:34;;;;;;;40.23;16.80;;;;;;;;;;4873656;29;20471;-72
2023/03/05 01:01:02;;;;;;;36.50;17.37;;;;;;;;;;4874205;29;20481;-72
2023/03/05 01:03:29;;;;;;;36.57;17.30;;;;;;;;;;4892300;29;20467;-72
2023/03/05 01:05:58;;;;;;;32.23;17.17;;;;;;;;;;4891813;29;20475;-72
2023/03/05 01:08:25;;;;;;;33.73;17.20;;;;;;;;;;4891465;29;20837;-72
2023/03/05 01:10:52;;;;;;;34.10;17.03;;;;;;;;;;4891935;29;20471;-73
2023/03/05 01:13:20;;;;;;;39.63;19.00;;;;;;;;;;4907733;29;20483;-73
2023/03/05 01:15:49;;;;;;;40.37;19.97;;;;;;;;;;4906725;29;20480;-73
2023/03/05 01:18:17;;;;;;;35.70;17.77;;;;;;;;;;4891328;29;20967;-73
2023/03/05 01:20:44;;;;;;;34.57;17.70;;;;;;;;;;4891743;29;20480;-74
2023/03/05 01:23:12;;;;;;;33.50;16.83;;;;;;;;;;4892808;29;20464;-73
2023/03/05 01:25:40;;;;;;;28.83;15.00;;;;;;;;;;4891980;29;20490;-73
2023/03/05 01:28:07;;;;;;;32.07;16.67;;;;;;;;;;4892940;29;20811;-73
2023/03/05 01:30:34;;;;;;;26.50;14.70;;;;;;;;;;4911350;29;20452;-73
2023/03/05 01:33:02;;;;;;;27.67;13.77;;;;;;;;;;4911132;29;20837;-72
2023/03/05 01:35:30;;;;;;;30.13;13.93;;;;;;;;;;4914993;29;20995;-78
2023/03/05 01:37:57;;;;;;;32.13;16.00;;;;;;;;;;4916079;29;20501;-78
2023/03/05 01:40:27;;;;;;;32.93;17.00;;;;;;;;;;4914042;29;20942;-78
2023/03/05 01:42:58;;;;;;;32.30;17.27;;;;;;;;;;4915885;29;20821;-77
2023/03/05 01:45:25;;;;;;;29.03;16.33;;;;;;;;;;4913496;29;20448;-77
2023/03/05 01:47:53;;;;;;;32.50;18.60;;;;;;;;;;4915564;29;20459;-79
2023/03/05 01:50:21;;;;;;;33.63;15.87;;;;;;;;;;4916801;29;20455;-78
2023/03/05 01:52:50;;;;;;;32.63;17.63;;;;;;;;;;4913733;29;20474;-77
2023/03/05 01:55:18;;;;;;;34.23;18.27;;;;;;;;;;4916730;29;20839;-78
2023/03/05 01:57:48;;;;;;;31.90;18.23;;;;;;;;;;4917112;29;21074;-78
2023/03/05 02:00:17;;;;;;;30.57;16.67;;;;;;;;;;4917376;29;21120;-77
2023/03/05 02:02:47;;;;;;;35.87;15.80;;;;;;;;;;4918032;29;20824;-78
2023/03/05 02:05:17;;;;;;;36.50;16.43;;;;;;;;;;4917374;29;20479;-79
2023/03/05 02:07:44;;;;;;;36.20;16.70;;;;;;;;;;4917959;29;20448;-78
2023/03/05 02:10:18;;;;;;;38.57;17.53;;;;;;;;;;4917819;29;20447;-77
2023/03/05 02:12:45;;;;;;;33.80;16.33;;;;;;;;;;4916976;29;20491;-78
2023/03/05 02:15:14;;;;;;;39.37;16.20;;;;;;;;;;4917454;29;20460;-78
2023/03/05 02:17:41;;;;;;;35.33;16.83;;;;;;;;;;4917125;29;20502;-78
2023/03/05 02:20:12;;;;;;;34.50;15.27;;;;;;;;;;4920058;29;20997;-79
2023/03/05 02:22:40;;;;;;;37.23;16.83;;;;;;;;;;4902613;29;21244;-78
2023/03/05 02:25:14;;;;;;;26.63;15.43;;;;;;;;;;4901252;29;20531;-78
2023/03/05 02:27:43;;;;;;;32.00;16.70;;;;;;;;;;4899280;29;20456;-78
2023/03/05 02:30:12;;;;;;;33.13;16.00;;;;;;;;;;4897986;29;20464;-79
2023/03/05 02:32:39;;;;;;;32.10;15.13;;;;;;;;;;4897184;29;20465;-78
2023/03/05 02:35:06;;;;;;;35.43;15.00;;;;;;;;;;4915267;29;20455;-78
2023/03/05 02:37:33;;;;;;;29.97;15.70;;;;;;;;;;4914686;29;20491;-77
2023/03/05 02:40:02;;;;;;;39.73;15.37;;;;;;;;;;4897882;29;20457;-78
2023/03/05 02:42:32;;;;;;;35.57;14.90;;;;;;;;;;4897029;29;20463;-78
2023/03/05 02:44:59;;;;;;;31.57;15.13;;;;;;;;;;4896243;29;20475;-78
2023/03/05 02:47:26;;;;;;;31.97;15.07;;;;;;;;;;4896505;29;21010;-78
2023/03/05 02:49:54;;;;;;;28.73;16.50;;;;;;;;;;4896728;29;20452;-78
2023/03/05 02:52:22;;;;;;;27.73;15.40;;;;;;;;;;4896717;29;20495;-78
2023/03/05 02:54:49;;;;;;;28.23;14.10;;;;;;;;;;4896318;29;21169;-78
2023/03/05 02:57:18;;;;;;;25.07;14.57;;;;;;;;;;4896850;29;20496;-79
2023/03/05 02:59:45;;;;;;;34.00;16.27;;;;;;;;;;4897530;29;20465;-78
2023/03/05 03:02:13;;;;;;;38.77;16.27;;;;;;;;;;4897037;29;20452;-78
2023/03/05 03:04:41;;;;;;;39.77;16.80;;;;;;;;;;4896787;29;20858;-78
2023/03/05 03:07:08;;;;;;;34.00;16.30;;;;;;;;;;4897326;29;20469;-78
2023/03/05 03:09:35;;;;;;;30.57;16.40;;;;;;;;;;4897043;29;20456;-77
2023/03/05 03:12:03;;;;;;;33.10;16.27;;;;;;;;;;4896144;29;20491;-78
2023/03/05 03:14:36;;;;;;;37.33;18.40;;;;;;;;;;4900156;29;20468;-78
2023/03/05 03:17:03;;;;;;;34.37;19.40;;;;;;;;;;4900817;29;21006;-79
2023/03/05 03:19:31;;;;;;;33.50;15.60;;;;;;;;;;4900478;29;20483;-79
2023/03/05 03:21:58;;;;;;;27.20;15.73;;;;;;;;;;4900658;29;20514;-78
2023/03/05 03:24:25;;;;;;;33.50;17.20;;;;;;;;;;4899945;29;20459;-79
2023/03/05 03:26:52;;;;;;;32.10;15.67;;;;;;;;;;4899878;29;20846;-79
2023/03/05 03:29:19;;;;;;;31.63;13.80;;;;;;;;;;4900302;29;20444;-77
2023/03/05 03:31:48;;;;;;;30.87;13.80;;;;;;;;;;4900574;29;20480;-78
2023/03/05 03:34:15;;;;;;;32.57;15.20;;;;;;;;;;4918992;29;20555;-78
2023/03/05 03:36:42;;;;;;;31.20;16.77;;;;;;;;;;4919876;29;20505;-77
2023/03/05 03:39:10;;;;;;;35.97;16.73;;;;;;;;;;4931216;29;20456;-78
2023/03/05 03:41:37;;;;;;;39.77;17.50;;;;;;;;;;4920833;29;20938;-78
2023/03/05 03:44:07;;;;;;;31.90;16.10;;;;;;;;;;4918427;29;20980;-77
2023/03/05 03:46:34;;;;;;;33.20;16.90;;;;;;;;;;4919842;29;21005;-78
2023/03/05 03:49:03;;;;;;;35.33;15.03;;;;;;;;;;4919280;29;20556;-78
2023/03/05 03:51:30;;;;;;;40.47;16.90;;;;;;;;;;4918921;29;21132;-78
2023/03/05 03:53:57;;;;;;;29.43;14.50;;;;;;;;;;4917605;29;20460;-77
2023/03/05 03:56:24;;;;;;;41.53;16.57;;;;;;;;;;4915713;29;20487;-76
2023/03/05 03:58:51;;;;;;;29.23;15.90;;;;;;;;;;4916289;29;20502;-78
2023/03/05 04:01:19;;;;;;;31.90;16.50;;;;;;;;;;4915819;29;20556;-77
2023/03/05 04:03:46;;;;;;;40.17;16.93;;;;;;;;;;4916185;29;20457;-77
2023/03/05 04:06:14;;;;;;;34.00;16.73;;;;;;;;;;4896925;29;20472;-77
2023/03/05 04:08:42;;;;;;;31.70;15.47;;;;;;;;;;4898584;29;20453;-77
2023/03/05 04:11:09;;;;;;;35.97;16.00;;;;;;;;;;4899004;29;20457;-77
2023/03/05 04:13:36;;;;;;;37.00;20.17;;;;;;;;;;4899764;29;20558;-77
2023/03/05 04:16:03;;;;;;;40.17;17.03;;;;;;;;;;4902625;29;20444;-79
2023/03/05 04:18:31;;;;;;;43.80;20.83;;;;;;;;;;4904149;29;20531;-76
2023/03/05 04:20:58;;;;;;;36.90;19.77;;;;;;;;;;4919038;29;20535;-77
2023/03/05 04:23:26;;;;;;;42.03;18.00;;;;;;;;;;4923233;29;20910;-77
2023/03/05 04:25:54;;;;;;;43.20;18.03;;;;;;;;;;4918215;29;20453;-77
2023/03/05 04:28:21;;;;;;;36.67;16.87;;;;;;;;;;4918578;29;20441;-78
2023/03/05 04:30:48;;;;;;;30.97;15.97;;;;;;;;;;4917526;29;20442;-77
2023/03/05 04:33:15;;;;;;;45.87;17.50;;;;;;;;;;4919208;29;20834;-77
2023/03/05 04:35:43;;;;;;;36.83;17.37;;;;;;;;;;4919011;29;20467;-78
2023/03/05 04:38:10;;;;;;;33.17;16.73;;;;;;;;;;4918819;29;21051;-77
2023/03/05 04:40:39;;;;;;;39.33;17.60;;;;;;;;;;4920804;29;21247;-78
2023/03/05 04:43:06;;;;;;;37.83;18.50;;;;;;;;;;4922760;29;20458;-77
2023/03/05 04:45:34;;;;;;;37.60;18.13;;;;;;;;;;4922924;29;20903;-79
2023/03/05 04:48:01;;;;;;;37.27;19.90;;;;;;;;;;4923047;29;20475;-78
2023/03/05 04:50:28;;;;;;;38.40;19.43;;;;;;;;;;4922878;29;20464;-78
2023/03/05 04:52:55;;;;;;;40.00;19.80;;;;;;;;;;4909886;29;20496;-78
2023/03/05 04:55:22;;;;;;;30.23;17.80;;;;;;;;;;4898496;29;20460;-77
2023/03/05 04:57:51;;;;;;;35.80;17.17;;;;;;;;;;4897936;29;20579;-78
2023/03/05 05:00:18;;;;;;;45.67;21.70;;;;;;;;;;4897227;29;20843;-78
2023/03/05 05:02:46;;;;;;;47.07;20.33;;;;;;;;;;4897119;29;20468;-76
2023/03/05 05:05:15;;;;;;;34.07;16.97;;;;;;;;;;4897063;29;20482;-77
2023/03/05 05:07:42;;;;;;;42.00;19.67;;;;;;;;;;4904924;29;20472;-79
2023/03/05 05:10:10;;;;;;;40.10;18.50;;;;;;;;;;4920137;29;20464;-79
2023/03/05 05:12:38;;;;;;;44.80;17.80;;;;;;;;;;4919892;29;20480;-79
2023/03/05 05:15:07;;;;;;;38.53;18.33;;;;;;;;;;4919083;29;20460;-78
2023/03/05 05:17:35;;;;;;;42.23;20.07;;;;;;;;;;4920961;29;20498;-79
2023/03/05 05:20:03;;;;;;;47.57;22.00;;;;;;;;;;4921032;29;21032;-80
2023/03/05 05:22:30;;;;;;;44.33;20.93;;;;;;;;;;4919958;29;20535;-79
2023/03/05 05:24:57;;;;;;;42.77;19.17;;;;;;;;;;4901408;29;20476;-78
2023/03/05 05:27:24;;;;;;;44.93;19.20;;;;;;;;;;4900573;29;20987;-79
2023/03/05 05:29:52;;;;;;;41.27;21.20;;;;;;;;;;4995336;23;20461;-78
2023/03/05 05:32:21;;;;;;;41.30;19.50;;;;;;;;;;5003530;23;20474;-79
2023/03/05 05:34:48;;;;;;;39.83;17.53;;;;;;;;;;5076016;23;20528;-79
2023/03/05 05:37:15;;;;;;;40.83;21.40;;;;;;;;;;4956231;28;20446;-78
2023/03/05 05:39:48;;;;;;;40.73;18.37;;;;;;;;;;4956878;29;20961;-80
2023/03/05 05:42:15;;;;;;;35.17;18.00;;;;;;;;;;4956167;29;20470;-78
2023/03/05 05:44:43;;;;;;;44.97;22.10;;;;;;;;;;4955254;29;20462;-79
2023/03/05 05:47:10;;;;;;;40.30;18.47;;;;;;;;;;4954822;29;20453;-79
2023/03/05 05:49:38;;;;;;;36.80;17.77;;;;;;;;;;4956787;29;20490;-78
2023/03/05 05:52:06;;;;;;;44.80;17.13;;;;;;;;;;4956857;29;20477;-79
2023/03/05 05:54:33;;;;;;;48.33;21.40;;;;;;;;;;4957659;28;20889;-80
2023/03/05 05:57:00;;;;;;;44.73;20.10;;;;;;;;;;4974808;28;20542;-78
2023/03/05 05:59:27;;;;;;;38.33;18.47;;;;;;;;;;4974873;28;20684;-78
2023/03/05 06:01:54;;;;;;;43.67;20.10;;;;;;;;;;4973813;28;20445;-78
2023/03/05 06:04:21;;;;;;;41.07;18.43;;;;;;;;;;4974005;28;20465;-79
2023/03/05 06:06:50;;;;;;;41.73;19.10;;;;;;;;;;4971556;28;21001;-74
2023/03/05 06:09:17;;;;;;;40.77;20.73;;;;;;;;;;4971187;28;20462;-75
2023/03/05 06:11:44;;;;;;;78.83;33.73;;;;;;;;;;4969596;28;20450;-72
2023/03/05 06:14:12;;;;;;;46.67;19.33;;;;;;;;;;4969383;28;20564;-74
2023/03/05 06:16:39;;;;;;;35.97;19.27;;;;;;;;;;4971360;28;20449;-74
2023/03/05 06:19:08;;;;;;;45.47;19.93;;;;;;;;;;4970385;28;20493;-80
2023/03/05 06:21:36;;;;;;;35.13;17.13;;;;;;;;;;4997027;28;20440;-81
2023/03/05 06:24:08;;;;;;;31.83;16.33;;;;;;;;;;4996768;28;20443;-81
2023/03/05 06:26:35;;;;;;;34.53;17.27;;;;;;;;;;4973989;28;20529;-77
2023/03/05 06:29:02;;;;;;;38.80;17.43;;;;;;;;;;4975829;28;20471;-75
2023/03/05 06:31:29;;;;;;;40.47;16.20;;;;;;;;;;4976965;28;20843;-76
2023/03/05 06:33:57;;;;;;;38.27;18.70;;;;;;;;;;4975871;28;20489;-73
2023/03/05 06:36:25;;;;;;;38.40;19.00;;;;;;;;;;4970663;28;20456;-72
2023/03/05 06:38:53;;;;;;;37.10;18.40;;;;;;;;;;4971617;28;21065;-78
2023/03/05 06:41:23;;;;;;;43.00;20.10;;;;;;;;;;4973149;28;20570;-77
2023/03/05 06:43:50;;;;;;;43.20;22.30;;;;;;;;;;4975212;28;20449;-79
2023/03/05 06:46:19;;;;;;;39.10;16.87;;;;;;;;;;4970145;28;20476;-73
2023/03/05 06:48:46;;;;;;;37.80;19.50;;;;;;;;;;4973096;28;20465;-72
2023/03/05 06:51:15;;;;;;;36.10;18.87;;;;;;;;;;4973920;28;20536;-74
2023/03/05 06:53:42;;;;;;;32.27;16.30;;;;;;;;;;4974015;28;20515;-75
2023/03/05 06:56:09;;;;;;;41.50;17.93;;;;;;;;;;4973815;28;20457;-74
2023/03/05 06:58:38;;;;;;;33.10;17.47;;;;;;;;;;4969941;28;20490;-73
2023/03/05 07:01:06;;;;;;;36.43;18.73;;;;;;;;;;4946509;29;20469;-74
2023/03/05 07:03:33;;;;;;;37.23;16.10;;;;;;;;;;4965516;28;20477;-73
2023/03/05 07:06:02;;;;;;;39.13;17.83;;;;;;;;;;4973468;28;20465;-72
2023/03/05 07:08:29;;;;;;;31.97;16.50;;;;;;;;;;4936495;29;20463;-72
2023/03/05 07:10:57;;;;;;;30.50;16.20;;;;;;;;;;4934931;29;20458;-73
2023/03/05 07:13:24;;;;;;;41.97;19.33;;;;;;;;;;4950158;29;20454;-74
2023/03/05 07:15:52;;;;;;;39.57;18.63;;;;;;;;;;4954078;29;20445;-74
2023/03/05 07:18:19;;;;;;;47.27;18.77;;;;;;;;;;4954815;29;20491;-73
2023/03/05 07:20:46;;;;;;;35.23;16.60;;;;;;;;;;4969268;28;20977;-74
2023/03/05 07:23:14;;;;;;;36.73;17.07;;;;;;;;;;4974063;28;20484;-74
2023/03/05 07:25:42;;;;;;;36.80;18.80;;;;;;;;;;4973910;28;20541;-73
2023/03/05 07:28:10;;;;;;;35.13;18.10;;;;;;;;;;4955905;28;20472;-72
2023/03/05 07:30:37;;;;;;;31.97;16.60;;;;;;;;;;4953895;29;21210;-73
2023/03/05 07:33:05;;;;;;;43.67;19.53;;;;;;;;;;4954770;29;20562;-74
2023/03/05 07:35:32;;;;;;;38.40;16.03;;;;;;;;;;4953403;28;20976;-73
2023/03/05 07:37:59;;;;;;;37.33;17.17;;;;;;;;;;4955967;29;20975;-73
2023/03/05 07:40:26;;;;;;;36.40;17.60;;;;;;;;;;4956674;29;20978;-74
2023/03/05 07:42:54;;;;;;;32.50;16.47;;;;;;;;;;4962465;29;20800;-73
2023/03/05 07:45:21;;;;;;;42.50;18.23;;;;;;;;;;4955108;29;21170;-73
2023/03/05 07:47:48;;;;;;;38.37;16.93;;;;;;;;;;4954041;29;20462;-73
2023/03/05 07:50:17;;;;;;;41.77;18.07;;;;;;;;;;4957452;28;20479;-72
2023/03/05 07:52:44;;;;;;;40.37;16.10;;;;;;;;;;4973460;28;20505;-72
2023/03/05 07:55:11;;;;;;;35.97;16.60;;;;;;;;;;4973565;28;20449;-73
2023/03/05 07:57:38;;;;;;;36.60;15.53;;;;;;;;;;4972768;28;20452;-72
2023/03/05 08:00:06;;;;;;;34.03;16.37;;;;;;;;;;4972333;28;20499;-75
2023/03/05 08:02:33;;;;;;;34.03;18.23;;;;;;;;;;4972563;28;20457;-73
2023/03/05 08:05:00;;;;;;;39.77;20.80;;;;;;;;;;4971043;28;20448;-74
2023/03/05 08:07:29;;;;;;;43.17;16.93;;;;;;;;;;4953939;29;20836;-72
2023/03/05 08:09:56;;;;;;;36.13;17.17;;;;;;;;;;4953345;29;20451;-73
2023/03/05 08:12:23;;;;;;;34.23;15.63;;;;;;;;;;4954369;29;20450;-72
2023/03/05 08:14:51;;;;;;;39.87;19.93;;;;;;;;;;4950265;29;20469;-74
2023/03/05 08:17:18;;;;;;;44.37;17.33;;;;;;;;;;4953219;28;20462;-73
2023/03/05 08:19:45;;;;;;;44.00;21.60;;;;;;;;;;4946807;29;21019;-73
2023/03/05 08:22:14;;;;;;;37.03;16.90;;;;;;;;;;4968312;28;20551;-73
2023/03/05 08:24:43;;;;;;;27.00;14.57;;;;;;;;;;4957908;28;20459;-72
2023/03/05 08:27:10;;;;;;;39.43;17.50;;;;;;;;;;4950751;29;20469;-73
2023/03/05 08:29:37;;;;;;;30.13;15.40;;;;;;;;;;4951997;28;20451;-72
2023/03/05 08:32:05;;;;;;;39.80;17.47;;;;;;;;;;4948009;29;20461;-73
2023/03/05 08:34:32;;;;;;;34.93;15.67;;;;;;;;;;4950191;28;20488;-73
2023/03/05 08:36:59;;;;;;;42.50;18.67;;;;;;;;;;4955567;28;20469;-74
2023/03/05 08:39:26;;;;;;;33.37;16.47;;;;;;;;;;4950034;28;20491;-73
2023/03/05 08:41:55;;;;;;;35.20;17.17;;;;;;;;;;4947506;29;20513;-76
2023/03/05 08:44:22;;;;;;;38.63;18.13;;;;;;;;;;4951494;29;20461;-72
2023/03/05 08:46:49;;;;;;;33.33;16.33;;;;;;;;;;4952084;28;20937;-72
2023/03/05 08:49:16;;;;;;;33.80;15.33;;;;;;;;;;4952226;29;20462;-72
2023/03/05 08:51:43;;;;;;;35.03;16.40;;;;;;;;;;4939902;29;20478;-74
2023/03/05 08:54:11;;;;;;;32.50;15.67;;;;;;;;;;4951361;28;20469;-75
2023/03/05 08:56:38;;;;;;;35.63;17.00;;;;;;;;;;4953137;29;20460;-77
2023/03/05 08:59:07;;;;;;;39.23;19.00;;;;;;;;;;4953263;29;20494;-74
2023/03/05 09:01:34;;;;;;;46.50;21.10;;;;;;;;;;4953293;29;20507;-74
2023/03/05 09:04:02;;;;;;;31.83;16.80;;;;;;;;;;4952281;29;20601;-74
2023/03/05 09:06:30;;;;;;;33.83;17.67;;;;;;;;;;4954296;28;20462;-77
2023/03/05 09:08:57;;;;;;;35.87;15.93;;;;;;;;;;4965689;28;20495;-73
2023/03/05 09:11:24;;;;;;;33.93;17.30;;;;;;;;;;4970286;28;20865;-71
2023/03/05 09:13:51;;;;;;;36.83;17.40;;;;;;;;;;4966404;28;20462;-75
2023/03/05 09:16:20;;;;;;;39.77;18.73;;;;;;;;;;4953852;28;20465;-76
2023/03/05 09:18:47;;;;;;;44.40;19.70;;;;;;;;;;4952155;29;20486;-72
2023/03/05 09:21:15;;;;;;;35.97;17.47;;;;;;;;;;4942861;29;20550;-78
2023/03/05 09:23:43;;;;;;;34.60;17.43;;;;;;;;;;4951204;29;20447;-75
2023/03/05 09:26:12;;;;;;;33.10;16.07;;;;;;;;;;4973904;28;20481;-75
2023/03/05 09:28:39;;;;;;;34.57;16.77;;;;;;;;;;4951211;28;20545;-73
2023/03/05 09:31:06;;;;;;;37.00;17.70;;;;;;;;;;4948804;29;20876;-74
2023/03/05 09:33:35;;;;;;;35.13;17.50;;;;;;;;;;4960231;29;20474;-75
2023/03/05 09:36:03;;;;;;;37.60;16.10;;;;;;;;;;4955890;29;20473;-73
2023/03/05 09:38:30;;;;;;;35.53;17.00;;;;;;;;;;4952383;29;20904;-73
2023/03/05 09:41:02;;;;;;;31.83;16.00;;;;;;;;;;4932195;29;20466;-77
2023/03/05 09:43:36;;;;;;;35.53;16.63;;;;;;;;;;4964599;28;20466;-74
2023/03/05 09:46:10;;;;;;;39.23;16.57;;;;;;;;;;4970119;28;21007;-74
2023/03/05 09:48:47;;;;;;;35.37;16.03;;;;;;;;;;4969588;28;20516;-75
2023/03/05 09:51:17;;;;;;;46.27;16.20;;;;;;;;;;4962374;28;20459;-73
2023/03/05 09:53:46;;;;;;;34.73;15.87;;;;;;;;;;4950555;29;20583;-73
2023/03/05 09:56:16;;;;;;;32.63;17.00;;;;;;;;;;4950042;29;20952;-73
2023/03/05 09:58:43;;;;;;;40.07;20.37;;;;;;;;;;4953460;28;20493;-74
2023/03/05 10:01:12;;;;;;;37.17;17.70;;;;;;;;;;4969387;28;20468;-74
2023/03/05 10:03:49;;;;;;;33.03;16.40;;;;;;;;;;4953041;28;20475;-72
2023/03/05 10:06:20;;;;;;;34.40;17.63;;;;;;;;;;4953987;29;20569;-74
2023/03/05 10:08:52;;;;;;;32.07;18.80;;;;;;;;;;4951652;29;20894;-74
2023/03/05 10:11:34;;;;;;;34.00;16.53;;;;;;;;;;4950574;29;20480;-75
2023/03/05 10:14:02;;;;;;;31.03;17.40;;;;;;;;;;4947148;28;20978;-74
2023/03/05 10:16:40;;;;;;;33.80;17.80;;;;;;;;;;4944826;28;21020;-73
2023/03/05 10:19:15;;;;;;;36.97;16.57;;;;;;;;;;4947387;29;21074;-74
2023/03/05 10:21:47;;;;;;;38.70;17.03;;;;;;;;;;4949857;28;20504;-74
2023/03/05 10:24:17;;;;;;;30.97;17.73;;;;;;;;;;4953436;29;20808;-74
2023/03/05 10:26:53;;;;;;;35.53;18.53;;;;;;;;;;4953658;29;20458;-73
2023/03/05 10:29:36;;;;;;;33.20;18.07;;;;;;;;;;4955120;29;20461;-75
2023/03/05 10:32:09;;;;;;;35.67;19.37;;;;;;;;;;4968139;28;20469;-75
2023/03/05 10:34:44;;;;;;;32.30;16.33;;;;;;;;;;4925566;29;20483;-74
2023/03/05 10:37:18;;;;;;;36.53;17.63;;;;;;;;;;4915734;29;20459;-73
2023/03/05 10:40:00;;;;;;;44.80;20.40;;;;;;;;;;4929186;29;20509;-73
2023/03/05 10:42:31;;;;;;;31.17;15.07;;;;;;;;;;4922156;29;20861;-75
2023/03/05 10:44:59;;;;;;;38.57;17.60;;;;;;;;;;4915399;29;20455;-76
2023/03/05 10:47:27;;;;;;;37.87;17.50;;;;;;;;;;4914932;29;20452;-73
2023/03/05 10:49:57;;;;;;;34.70;16.10;;;;;;;;;;4923241;29;20815;-74
2023/03/05 10:52:28;;;;;;;31.97;18.03;;;;;;;;;;4933673;29;20938;-74
2023/03/05 10:54:55;;;;;;;38.00;17.70;;;;;;;;;;4937358;29;20933;-73
2023/03/05 10:57:23;;;;;;;35.73;18.40;;;;;;;;;;4935842;29;20530;-74
2023/03/05 10:59:51;;;;;;;40.33;20.37;;;;;;;;;;4934504;29;20490;-74
2023/03/05 11:02:19;;;;;;;42.27;18.20;;;;;;;;;;4934246;29;20465;-73
2023/03/05 11:04:47;;;;;;;40.27;17.03;;;;;;;;;;4933998;29;20515;-73
2023/03/05 11:07:29;;;;;;;39.37;16.47;;;;;;;;;;4934022;29;20792;-74
2023/03/05 11:10:06;;;;;;;36.70;16.83;;;;;;;;;;4931320;29;21000;-75
2023/03/05 11:12:34;;;;;;;36.47;17.63;;;;;;;;;;4933990;29;20467;-72
2023/03/05 11:15:06;;;;;;;30.50;15.87;;;;;;;;;;4933895;29;20747;-75
2023/03/05 11:17:36;;;;;;;31.77;16.20;;;;;;;;;;4933807;29;20455;-74
2023/03/05 11:20:23;;;;;;;30.83;15.70;;;;;;;;;;4933278;29;20490;-75
2023/03/05 11:23:03;;;;;;;33.17;14.87;;;;;;;;;;4914925;29;20460;-74
2023/03/05 11:25:32;;;;;;;31.90;16.60;;;;;;;;;;4914410;29;20452;-74
2023/03/05 11:28:00;;;;;;;28.57;12.77;;;;;;;;;;4914891;29;20971;-74
2023/03/05 11:30:29;;;;;;;31.47;15.83;;;;;;;;;;4915328;29;20538;-74
2023/03/05 11:33:09;;;;;;;29.60;16.63;;;;;;;;;;4914745;29;20453;-75
2023/03/05 11:35:37;;;;;;;31.93;18.50;;;;;;;;;;4955877;29;20497;-75
2023/03/05 11:38:05;;;;;;;39.90;16.90;;;;;;;;;;4953247;29;20462;-75
2023/03/05 11:40:35;;;;;;;35.97;17.37;;;;;;;;;;4960003;28;20492;-74
2023/03/05 11:43:02;;;;;;;37.50;19.30;;;;;;;;;;4971714;28;20971;-75
2023/03/05 11:45:31;;;;;;;36.77;18.50;;;;;;;;;;4971740;28;20535;-74
2023/03/05 11:48:02;;;;;;;31.83;16.03;;;;;;;;;;4971976;28;20485;-74
2023/03/05 11:50:31;;;;;;;28.63;16.33;;;;;;;;;;4971447;28;20770;-74
2023/03/05 11:53:00;;;;;;;37.03;17.67;;;;;;;;;;4971725;28;20533;-75
2023/03/05 11:55:29;;;;;;;33.90;20.23;;;;;;;;;;4971486;28;20453;-74
2023/03/05 11:58:04;;;;;;;39.23;18.60;;;;;;;;;;4976588;28;21096;-79
2023/03/05 12:21:25;;;;;;;32.50;14.73;;;;;;;;;;4899304;29;20511;-74
2023/03/05 12:23:53;;;;;;;26.17;13.10;;;;;;;;;;4896674;29;20462;-75
2023/03/05 12:26:40;;;;;;;22.20;12.63;;;;;;;;;;4896150;29;20523;-74
2023/03/05 12:29:26;;;;;;;34.53;16.43;;;;;;;;;;4898735;29;20460;-75
2023/03/05 12:31:54;;;;;;;23.03;11.57;;;;;;;;;;4897119;29;20461;-76
2023/03/05 12:34:51;;;;;;;26.40;14.40;;;;;;;;;;4897297;29;20468;-76
2023/03/05 12:37:37;;;;;;;25.33;14.50;;;;;;;;;;4866363;29;20479;-80
2023/03/05 12:40:20;;;;;;;28.93;15.60;;;;;;;;;;4911520;29;20481;-80
2023/03/05 12:42:53;;;;;;;28.80;12.23;;;;;;;;;;4921901;29;20441;-76
2023/03/05 12:45:39;;;;;;;21.17;13.30;;;;;;;;;;4901115;29;20457;-76
2023/03/05 12:48:25;;;;;;;18.07;10.93;;;;;;;;;;4936316;29;20480;-80
2023/03/05 12:50:58;;;;;;;25.77;13.60;;;;;;;;;;4940987;29;20435;-81
2023/03/05 12:53:25;;;;;;;29.03;13.50;;;;;;;;;;4941408;29;20496;-82
2023/03/05 12:55:57;;;;;;;31.80;13.13;;;;;;;;;;4930394;29;20528;-79
2023/03/05 12:58:31;;;;;;;28.83;13.87;;;;;;;;;;4905628;29;20476;-78
2023/03/05 13:01:02;;;;;;;26.20;13.63;;;;;;;;;;4973002;23;20520;-77
2023/03/05 13:03:31;;;;;;;26.33;16.00;;;;;;;;;;4887893;29;20441;-74
2023/03/05 13:05:59;;;;;;;23.27;12.90;;;;;;;;;;4897934;29;20455;-75
2023/03/05 13:08:29;;;;;;;22.87;13.10;;;;;;;;;;4899561;29;20477;-76
2023/03/05 13:10:58;;;;;;;22.10;11.00;;;;;;;;;;4902572;29;20521;-76
2023/03/05 13:13:27;;;;;;;23.83;13.77;;;;;;;;;;4897843;29;20450;-74
2023/03/05 13:15:54;;;;;;;21.60;13.10;;;;;;;;;;4896552;29;20485;-75
2023/03/05 13:18:21;;;;;;;24.47;12.00;;;;;;;;;;4894957;29;20451;-74
2023/03/05 13:20:55;;;;;;;22.87;9.37;;;;;;;;;;4915512;29;20477;-86
2023/03/05 13:23:23;;;;;;;16.20;8.67;;;;;;;;;;4907843;29;20454;-91
2023/03/05 13:26:04;;;;;;;21.53;10.57;;;;;;;;;;4903866;29;21079;-83
2023/03/05 13:28:33;;;;;;;22.43;11.27;;;;;;;;;;4906640;29;20469;-92
2023/03/05 13:31:01;;;;;;;17.40;11.90;;;;;;;;;;4889379;29;20452;-88
2023/03/05 13:33:29;;;;;;;15.80;9.90;;;;;;;;;;4887833;29;20450;-74
2023/03/05 13:35:56;;;;;;;21.67;12.40;;;;;;;;;;4882086;29;20450;-74
2023/03/05 13:38:25;;;;;;;17.90;11.23;;;;;;;;;;4883715;29;20450;-73
2023/03/05 13:41:04;;;;;;;20.83;11.97;;;;;;;;;;4885305;29;20497;-73
2023/03/05 13:43:31;;;;;;;20.40;12.30;;;;;;;;;;4892867;29;20834;-72
2023/03/05 13:45:59;;;;;;;19.53;10.70;;;;;;;;;;4893501;29;20531;-74
2023/03/05 13:48:27;;;;;;;22.07;11.70;;;;;;;;;;4893260;29;20514;-74
2023/03/05 13:50:55;;;;;;;23.57;10.27;;;;;;;;;;4893950;29;20465;-74
2023/03/05 13:53:23;;;;;;;17.23;8.83;;;;;;;;;;4888601;29;20446;-74
2023/03/05 13:55:52;;;;;;;11.53;8.67;;;;;;;;;;4882419;29;20455;-74
2023/03/05 13:58:38;;;;;;;20.10;11.63;;;;;;;;;;4881474;29;20461;-76
2023/03/05 14:01:13;;;;;;;23.67;13.17;;;;;;;;;;4883660;29;20497;-72
2023/03/05 14:03:40;;;;;;;34.80;13.60;;;;;;;;;;4886243;29;20870;-75
2023/03/05 14:06:10;;;;;;;23.97;12.97;;;;;;;;;;4884864;29;20454;-75
2023/03/05 14:08:38;;;;;;;20.50;12.47;;;;;;;;;;4887809;29;20538;-76
2023/03/05 14:11:13;;;;;;;20.67;11.40;;;;;;;;;;4886163;29;20446;-74
2023/03/05 14:13:40;;;;;;;19.80;13.00;;;;;;;;;;4890819;29;20443;-75
2023/03/05 14:16:10;;;;;;;24.33;13.53;;;;;;;;;;4888798;29;21069;-76
2023/03/05 14:18:37;;;;;;;22.03;12.67;;;;;;;;;;4887711;29;20520;-75
2023/03/05 14:21:06;;;;;;;28.10;13.57;;;;;;;;;;4888845;29;20494;-76
2023/03/05 14:23:36;;;;;;;22.13;11.40;;;;;;;;;;4893047;29;20863;-75
2023/03/05 14:26:18;;;;;;;19.93;10.50;;;;;;;;;;4889994;29;20469;-77
2023/03/05 14:28:50;;;;;;;21.47;11.90;;;;;;;;;;4888031;29;20913;-75
2023/03/05 14:31:19;;;;;;;22.60;10.90;;;;;;;;;;4895672;29;20460;-75
2023/03/05 14:33:46;;;;;;;21.27;12.70;;;;;;;;;;4894456;29;20878;-75
2023/03/05 14:36:13;;;;;;;16.67;11.37;;;;;;;;;;4887443;29;20492;-74
2023/03/05 14:38:41;;;;;;;21.80;11.20;;;;;;;;;;4874035;29;20455;-74
2023/03/05 14:41:22;;;;;;;21.70;11.43;;;;;;;;;;4874319;29;21038;-74
2023/03/05 14:43:49;;;;;;;22.53;10.73;;;;;;;;;;4880588;29;20537;-73
2023/03/05 14:46:16;;;;;;;23.40;12.73;;;;;;;;;;4881087;29;20451;-72
2023/03/05 14:48:45;;;;;;;24.10;13.20;;;;;;;;;;4882415;29;20446;-74